Terminal Aerodrome Forecast
Issued by NWS

Home | Current Version | Previous Version | Graphics & Text | Print | Product List | Glossary On
Versions: 1 2 3 4 5 6 7 8 9 10 11 12 13 14 15 16 17 18
000
FTUS43 KGRB 211733
TAFRHI
TAF
KRHI 211733Z 2118/2218 18009KT P6SM SCT120 BKN200
     FM212200 16007KT P6SM BKN120
     FM220000 15006KT P6SM VCSH OVC090
     FM220400 14006KT 5SM -SHRA BR VCTS OVC035CB
     FM220900 10006KT 3SM BR OVC005
     FM221500 09006KT P6SM BKN015=

USA.gov is the U.S. government's official web portal to all federal, state and local government web resources and services.